Time;durP1;ratioP1;P1;durP2;ratioP2;P2;SDS_P1;SDS_P2;PMS_P1;PMS_P2;Temp;Humidity;BMP_temperature;BMP_pressure;BME280_temperature;BME280_humidity;BME280_pressure;Samples;Min_cycle;Max_cycle;Signal;HPM_P1;HPM_P2
2021/07/16 00:03:35;;;;;;;;;;;13.50;99.90;;;;;;8292065;28;20292;-63
2021/07/16 00:07:36;;;;;;;;;;;13.70;99.90;;;;;;8293532;28;19906;-63
2021/07/16 00:11:37;;;;;;;;;;;13.80;99.90;;;;;;8293278;28;19928;-63
2021/07/16 00:15:37;;;;;;;;;;;13.80;99.90;;;;;;8293698;28;19912;-63
2021/07/16 00:19:38;;;;;;;;;;;13.80;99.90;;;;;;8293296;28;19911;-63
2021/07/16 00:23:39;;;;;;;;;;;13.80;99.90;;;;;;8285889;28;19913;-63
2021/07/16 00:27:39;;;;;;;;;;;13.70;99.90;;;;;;8274764;28;19912;-63
2021/07/16 00:31:40;;;;;;;;;;;13.70;99.90;;;;;;8292238;28;19936;-63
2021/07/16 00:35:40;;;;;;;;;;;13.80;99.90;;;;;;8293007;28;19917;-63
2021/07/16 00:39:41;;;;;;;;;;;13.80;99.90;;;;;;8292616;28;19952;-63
2021/07/16 00:43:41;;;;;;;;;;;13.80;99.90;;;;;;8292554;28;20367;-63
2021/07/16 00:47:42;;;;;;;;;;;13.90;99.90;;;;;;8285226;28;19905;-63
2021/07/16 00:51:44;;;;;;;;;;;13.90;99.90;;;;;;8290407;28;19940;-63
2021/07/16 00:55:45;;;;;;;;;;;13.90;99.90;;;;;;8245200;28;19905;-63
2021/07/16 00:59:46;;;;;;;;;;;13.90;99.90;;;;;;8292254;28;19912;-63
2021/07/16 01:03:49;;;;;;;;;;;13.90;99.90;;;;;;8292272;28;19913;-63
2021/07/16 01:07:50;;;;;;;;;;;13.80;99.90;;;;;;8291998;28;20388;-63
2021/07/16 01:11:50;;;;;;;;;;;13.90;99.90;;;;;;8284263;28;19913;-63
2021/07/16 01:15:51;;;;;;;;;;;13.90;99.90;;;;;;8291276;28;19964;-63
2021/07/16 01:19:52;;;;;;;;;;;13.80;99.90;;;;;;8274656;28;19964;-62
2021/07/16 01:23:52;;;;;;;;;;;14.30;99.90;;;;;;8291587;28;20012;-63
2021/07/16 01:27:54;;;;;;;;;;;14.20;99.90;;;;;;8291944;28;19905;-63
2021/07/16 01:31:54;;;;;;;;;;;14.10;99.90;;;;;;8272144;28;19913;-63
2021/07/16 01:35:55;;;;;;;;;;;14.10;99.90;;;;;;8284005;28;19912;-63
2021/07/16 01:39:57;;;;;;;;;;;14.10;99.90;;;;;;8290913;28;19927;-63
2021/07/16 01:43:57;;;;;;;;;;;14.00;99.90;;;;;;8293725;28;19909;-63
2021/07/16 01:48:00;;;;;;;;;;;14.30;99.90;;;;;;8297832;28;20287;-63
2021/07/16 01:52:00;;;;;;;;;;;14.40;99.90;;;;;;8297867;28;19906;-63
2021/07/16 01:56:01;;;;;;;;;;;14.30;99.90;;;;;;8297341;28;19909;-63
2021/07/16 02:00:03;;;;;;;;;;;14.20;99.90;;;;;;8290380;28;19909;-63
2021/07/16 02:04:04;;;;;;;;;;;14.10;99.90;;;;;;8295960;28;19909;-63
2021/07/16 02:08:07;;;;;;;;;;;14.10;99.90;;;;;;8296812;28;19906;-63
2021/07/16 02:12:07;;;;;;;;;;;14.30;99.90;;;;;;8279663;28;19905;-63
2021/07/16 02:16:08;;;;;;;;;;;14.20;99.90;;;;;;8296916;28;19906;-63
2021/07/16 02:20:28;;;;;;;;;;;14.20;99.90;;;;;;8296980;28;19956;-63
2021/07/16 02:24:29;;;;;;;;;;;14.20;99.90;;;;;;8289328;28;19909;-63
2021/07/16 02:28:30;;;;;;;;;;;14.30;99.90;;;;;;8295284;28;19905;-63
2021/07/16 02:32:30;;;;;;;;;;;14.30;99.90;;;;;;8370958;22;19965;-63
2021/07/16 02:36:32;;;;;;;;;;;14.30;99.90;;;;;;8361946;28;19924;-63
2021/07/16 02:40:34;;;;;;;;;;;14.20;99.90;;;;;;8362174;28;19909;-62
2021/07/16 02:44:34;;;;;;;;;;;14.30;99.90;;;;;;8361683;28;19916;-63
2021/07/16 02:48:35;;;;;;;;;;;14.30;99.90;;;;;;8361289;28;19951;-62
2021/07/16 02:52:35;;;;;;;;;;;14.30;99.90;;;;;;8356586;28;19991;-62
2021/07/16 02:56:36;;;;;;;;;;;14.30;99.90;;;;;;8327192;28;19916;-62
2021/07/16 03:00:37;;;;;;;;;;;14.70;99.90;;;;;;8328856;28;19905;-63
2021/07/16 03:04:37;;;;;;;;;;;15.00;99.90;;;;;;8345829;28;19916;-62
2021/07/16 03:08:37;;;;;;;;;;;14.90;99.90;;;;;;8360862;28;20252;-62
2021/07/16 03:12:38;;;;;;;;;;;14.80;99.90;;;;;;8359884;28;20378;-62
2021/07/16 03:16:39;;;;;;;;;;;14.60;99.90;;;;;;8360646;28;19916;-62
2021/07/16 03:20:45;;;;;;;;;;;14.50;99.90;;;;;;8359629;28;19904;-62
2021/07/16 03:24:45;;;;;;;;;;;14.50;99.90;;;;;;8337369;28;19963;-62
2021/07/16 03:28:45;;;;;;;;;;;14.50;99.90;;;;;;8325906;28;20367;-62
2021/07/16 03:32:46;;;;;;;;;;;14.40;99.90;;;;;;8328939;28;19913;-62
2021/07/16 03:36:47;;;;;;;;;;;14.40;99.90;;;;;;8360028;28;19939;-62
2021/07/16 03:40:53;;;;;;;;;;;14.40;99.90;;;;;;8360235;28;19987;-62
2021/07/16 03:44:53;;;;;;;;;;;14.40;99.90;;;;;;8359740;28;19986;-62
2021/07/16 03:48:55;;;;;;;;;;;14.50;99.90;;;;;;8359410;28;19999;-62
2021/07/16 03:52:55;;;;;;;;;;;14.60;99.90;;;;;;8352199;28;19951;-62
2021/07/16 03:56:56;;;;;;;;;;;14.70;99.90;;;;;;8326797;28;19909;-62
2021/07/16 04:00:56;;;;;;;;;;;14.70;99.90;;;;;;8318953;28;19909;-62
2021/07/16 04:04:57;;;;;;;;;;;14.80;99.90;;;;;;8333963;28;19912;-62
2021/07/16 04:09:20;;;;;;;;;;;14.80;99.90;;;;;;8359436;28;20280;-62
2021/07/16 04:13:18;;;;;;;;;;;14.80;99.90;;;;;;8312232;28;19916;-62
2021/07/16 04:17:20;;;;;;;;;;;14.90;99.90;;;;;;8309539;28;19944;-62
2021/07/16 04:21:20;;;;;;;;;;;14.80;99.90;;;;;;8317777;28;19916;-62
2021/07/16 04:25:21;;;;;;;;;;;14.80;99.90;;;;;;8308975;28;19949;-63
2021/07/16 04:29:21;;;;;;;;;;;14.90;99.90;;;;;;8311514;28;19916;-62
2021/07/16 04:33:22;;;;;;;;;;;14.90;99.90;;;;;;8322725;28;19948;-63
2021/07/16 04:37:22;;;;;;;;;;;14.90;99.90;;;;;;8355663;28;20473;-64
2021/07/16 04:41:22;;;;;;;;;;;14.90;99.90;;;;;;8311842;28;19913;-63
2021/07/16 04:45:23;;;;;;;;;;;15.00;99.90;;;;;;8305396;28;19917;-63
2021/07/16 04:49:24;;;;;;;;;;;15.00;99.90;;;;;;8292026;28;20368;-63
2021/07/16 04:53:24;;;;;;;;;;;15.00;99.90;;;;;;8305832;28;19993;-57
2021/07/16 04:57:25;;;;;;;;;;;15.00;99.90;;;;;;8324599;28;19959;-57
2021/07/16 05:01:26;;;;;;;;;;;14.90;99.90;;;;;;8296226;28;20503;-59
2021/07/16 05:05:26;;;;;;;;;;;15.00;99.90;;;;;;8344466;28;19915;-59
2021/07/16 05:09:27;;;;;;;;;;;15.30;99.90;;;;;;8356324;28;19935;-57
2021/07/16 05:13:27;;;;;;;;;;;15.70;99.90;;;;;;8344498;28;19935;-58
2021/07/16 05:17:28;;;;;;;;;;;16.00;99.90;;;;;;8326932;28;19986;-58
2021/07/16 05:21:28;;;;;;;;;;;16.10;99.90;;;;;;8364427;28;19931;-56
2021/07/16 05:25:29;;;;;;;;;;;16.10;99.90;;;;;;8303854;28;19917;-58
2021/07/16 05:29:29;;;;;;;;;;;16.00;99.90;;;;;;8307417;28;20419;-59
2021/07/16 05:33:30;;;;;;;;;;;15.90;99.90;;;;;;8314962;28;20008;-59
2021/07/16 05:37:30;;;;;;;;;;;15.70;99.90;;;;;;8320499;28;19920;-57
2021/07/16 05:41:31;;;;;;;;;;;15.50;99.90;;;;;;8324929;28;19962;-56
2021/07/16 05:45:32;;;;;;;;;;;15.30;99.90;;;;;;8331769;28;19905;-59
2021/07/16 05:49:32;;;;;;;;;;;15.20;99.90;;;;;;8330102;28;19909;-58
2021/07/16 05:53:33;;;;;;;;;;;15.20;99.90;;;;;;8316590;28;19917;-59
2021/07/16 05:57:33;;;;;;;;;;;15.20;99.90;;;;;;8296571;28;20434;-58
2021/07/16 06:01:34;;;;;;;;;;;15.00;99.90;;;;;;8299986;28;20002;-57
2021/07/16 06:05:35;;;;;;;;;;;15.10;99.90;;;;;;8313153;28;19909;-58
2021/07/16 06:09:36;;;;;;;;;;;15.10;99.90;;;;;;8304031;28;20265;-56
2021/07/16 06:13:36;;;;;;;;;;;15.10;99.90;;;;;;8305980;28;19913;-58
2021/07/16 06:17:37;;;;;;;;;;;15.00;99.90;;;;;;8312392;28;19905;-59
2021/07/16 06:21:38;;;;;;;;;;;15.30;99.90;;;;;;8321257;28;19917;-58
2021/07/16 06:25:38;;;;;;;;;;;15.50;99.90;;;;;;8321547;28;19956;-59
2021/07/16 06:29:39;;;;;;;;;;;15.50;99.90;;;;;;8310401;28;19914;-58
2021/07/16 06:33:39;;;;;;;;;;;15.70;99.90;;;;;;8313269;28;20523;-58
2021/07/16 06:37:40;;;;;;;;;;;15.80;99.90;;;;;;8302328;28;19906;-60
2021/07/16 06:41:40;;;;;;;;;;;15.90;99.90;;;;;;8316701;28;19975;-59
2021/07/16 06:45:41;;;;;;;;;;;16.30;99.90;;;;;;8307904;28;19974;-59
2021/07/16 06:49:41;;;;;;;;;;;16.50;99.90;;;;;;8309810;28;19913;-57
2021/07/16 06:53:42;;;;;;;;;;;16.60;99.90;;;;;;8311722;28;19912;-56
2021/07/16 06:57:42;;;;;;;;;;;16.70;99.90;;;;;;8309659;28;20418;-57
2021/07/16 07:01:43;;;;;;;;;;;16.80;99.90;;;;;;8306907;28;19960;-60
2021/07/16 07:05:43;;;;;;;;;;;16.90;99.90;;;;;;8310154;28;19905;-59
2021/07/16 07:09:44;;;;;;;;;;;17.00;99.90;;;;;;8310226;28;19920;-58
2021/07/16 07:13:45;;;;;;;;;;;17.30;99.90;;;;;;8309139;28;20016;-58
2021/07/16 07:17:46;;;;;;;;;;;17.40;99.90;;;;;;8313035;28;19916;-59
2021/07/16 07:21:46;;;;;;;;;;;17.60;99.90;;;;;;8305009;28;19924;-64
2021/07/16 07:25:47;;;;;;;;;;;18.00;99.90;;;;;;8302012;28;20632;-63
2021/07/16 07:29:48;;;;;;;;;;;18.10;99.90;;;;;;8303705;28;19913;-64
2021/07/16 07:33:49;;;;;;;;;;;17.90;99.90;;;;;;8313364;28;19948;-65
2021/07/16 07:37:50;;;;;;;;;;;17.90;99.90;;;;;;8323022;28;19913;-64
2021/07/16 07:41:50;;;;;;;;;;;17.90;99.90;;;;;;8326216;28;19909;-64
2021/07/16 07:45:51;;;;;;;;;;;18.00;99.90;;;;;;8326656;28;20010;-64
2021/07/16 07:49:51;;;;;;;;;;;18.40;99.90;;;;;;8325964;28;20372;-63
2021/07/16 07:53:53;;;;;;;;;;;18.70;99.90;;;;;;8326269;28;19962;-65
2021/07/16 07:57:54;;;;;;;5.03;4.18;;;18.80;99.90;;;;;;8323628;28;20478;-64
2021/07/16 08:01:55;;;;;;;7.00;4.75;;;19.10;99.90;;;;;;8301412;28;20041;-64
2021/07/16 08:05:56;;;;;;;6.65;5.13;;;19.20;99.90;;;;;;8349515;28;20353;-64
2021/07/16 08:09:57;;;;;;;6.10;5.47;;;18.80;99.90;;;;;;8300192;28;20022;-63
2021/07/16 08:13:59;;;;;;;5.70;5.10;;;18.90;99.90;;;;;;8305241;28;20045;-65
2021/07/16 08:18:00;;;;;;;6.13;5.47;;;19.40;99.90;;;;;;8307727;28;20034;-65
2021/07/16 08:22:00;;;;;;;5.38;4.82;;;19.30;99.90;;;;;;8307463;28;20025;-65
2021/07/16 08:26:01;;;;;;;7.68;5.20;;;20.10;99.90;;;;;;8304908;28;20602;-64
2021/07/16 08:30:03;;;;;;;7.43;5.07;;;20.70;99.90;;;;;;8301927;28;20030;-64
2021/07/16 08:34:06;;;;;;;5.10;3.67;;;21.20;99.90;;;;;;8332402;22;20051;-68
2021/07/16 08:38:07;;;;;;;4.82;4.43;;;21.80;99.90;;;;;;8317114;28;20036;-67
2021/07/16 08:42:08;;;;;;;4.57;4.00;;;22.00;99.90;;;;;;8324597;28;20384;-68
2021/07/16 08:46:10;;;;;;;3.35;3.05;;;21.90;99.90;;;;;;8323604;28;20025;-68
2021/07/16 08:50:13;;;;;;;3.30;3.00;;;21.90;99.90;;;;;;8322575;28;20653;-68
2021/07/16 08:54:16;;;;;;;4.18;3.67;;;22.10;99.90;;;;;;8326570;28;20026;-68
2021/07/16 08:58:16;;;;;;;3.38;3.05;;;21.90;99.90;;;;;;8330003;28;20163;-68
2021/07/16 09:02:17;;;;;;;3.20;2.90;;;21.90;99.90;;;;;;8330059;28;20880;-67
2021/07/16 09:06:18;;;;;;;3.30;3.00;;;22.20;99.90;;;;;;8327575;28;20091;-67
2021/07/16 09:10:22;;;;;;;3.60;2.92;;;22.10;99.90;;;;;;8330599;28;20033;-67
2021/07/16 09:14:31;;;;;;;3.60;3.30;;;21.70;99.90;;;;;;8312042;28;20029;-67
2021/07/16 09:18:32;;;;;;;4.03;2.90;;;21.30;99.90;;;;;;8329152;28;20049;-68
2021/07/16 09:22:35;;;;;;;2.70;2.50;;;21.10;99.90;;;;;;8325190;28;20034;-69
2021/07/16 09:26:39;;;;;;;2.72;2.30;;;21.50;99.90;;;;;;8327949;28;20024;-68
2021/07/16 09:30:40;;;;;;;3.42;1.70;;;22.20;99.90;;;;;;8330143;28;20021;-68
2021/07/16 09:34:40;;;;;;;2.30;2.00;;;21.90;99.90;;;;;;8328164;28;20121;-68
2021/07/16 09:38:41;;;;;;;2.17;2.00;;;21.70;99.90;;;;;;8330109;28;20022;-67
2021/07/16 09:42:42;;;;;;;1.77;1.67;;;21.20;99.90;;;;;;8310262;28;20034;-69
2021/07/16 09:47:05;;;;;;;3.08;1.60;;;21.50;99.90;;;;;;8329765;28;20022;-70
2021/07/16 09:51:16;;;;;;;2.60;2.22;;;22.50;99.90;;;;;;8323427;28;20395;-69
2021/07/16 09:55:21;;;;;;;2.20;1.77;;;23.00;99.90;;;;;;8309831;28;20045;-72
2021/07/16 09:59:28;;;;;;;3.08;1.65;;;23.10;99.90;;;;;;8326015;28;20405;-72
2021/07/16 10:03:30;;;;;;;1.85;1.75;;;23.30;99.90;;;;;;8303675;28;20026;-72
2021/07/16 10:07:32;;;;;;;3.25;2.30;;;23.00;99.90;;;;;;8297366;28;20022;-72
2021/07/16 10:11:34;;;;;;;3.67;2.03;;;22.50;99.90;;;;;;8279530;28;20049;-72
2021/07/16 10:15:35;;;;;;;2.55;2.30;;;22.30;99.90;;;;;;8306031;28;20022;-72
2021/07/16 10:19:36;;;;;;;3.00;2.60;;;22.00;99.90;;;;;;8328009;28;20037;-71
2021/07/16 10:23:40;;;;;;;2.40;2.20;;;21.60;99.90;;;;;;8325431;28;20409;-69
2021/07/16 10:27:42;;;;;;;2.85;2.60;;;21.40;99.90;;;;;;8302077;28;20026;-65
2021/07/16 10:31:42;;;;;;;5.03;2.13;;;21.60;99.90;;;;;;8302406;28;20034;-64
2021/07/16 10:35:43;;;;;;;1.90;1.80;;;22.10;99.90;;;;;;8323402;28;20037;-64
2021/07/16 10:39:47;;;;;;;3.05;1.95;;;22.50;99.90;;;;;;8325686;28;20108;-65
2021/07/16 10:43:48;;;;;;;3.38;1.70;;;22.90;99.90;;;;;;8323217;28;20121;-65
2021/07/16 10:47:51;;;;;;;2.17;1.90;;;23.10;99.90;;;;;;8310830;28;20029;-65
2021/07/16 10:52:03;;;;;;;5.40;2.20;;;23.40;99.90;;;;;;8311748;28;20025;-65
2021/07/16 10:56:06;;;;;;;2.10;1.63;;;23.90;99.90;;;;;;8326123;28;20439;-63
2021/07/16 11:00:10;;;;;;;1.67;1.50;;;24.30;99.90;;;;;;8328076;28;20037;-64
2021/07/16 11:04:32;;;;;;;2.22;1.83;;;24.40;99.90;;;;;;8309163;28;20029;-65
2021/07/16 11:08:36;;;;;;;1.60;1.40;;;24.80;99.90;;;;;;8308530;28;20437;-65
2021/07/16 11:12:37;;;;;;;1.50;1.02;;;25.10;99.90;;;;;;8307116;28;20021;-64
2021/07/16 11:16:38;;;;;;;1.90;1.40;;;25.30;99.90;;;;;;8319185;28;20109;-65
2021/07/16 11:20:39;;;;;;;2.20;1.15;;;25.20;99.90;;;;;;8297118;28;20030;-65
2021/07/16 11:24:40;;;;;;;2.83;1.48;;;25.30;99.90;;;;;;8317506;28;20678;-65
2021/07/16 11:28:41;;;;;;;1.52;1.20;;;25.00;99.90;;;;;;8323950;28;20491;-65
2021/07/16 11:32:41;;;;;;;1.88;1.30;;;25.20;99.90;;;;;;8324098;28;20029;-65
2021/07/16 11:36:50;;;;;;;1.33;1.20;;;25.00;99.90;;;;;;8324185;28;20116;-64
2021/07/16 11:40:50;;;;;;;1.77;1.40;;;24.40;99.90;;;;;;8325086;28;20351;-64
2021/07/16 11:44:51;;;;;;;1.48;1.15;;;23.60;99.90;;;;;;8307966;28;20036;-64
2021/07/16 11:48:52;;;;;;;2.58;1.30;;;23.40;99.90;;;;;;8325058;28;20515;-65
2021/07/16 11:52:53;;;;;;;9.82;3.97;;;24.20;99.90;;;;;;8324620;28;20025;-64
2021/07/16 11:56:56;;;;;;;1.10;1.00;;;26.80;99.90;;;;;;8324231;28;20040;-65
2021/07/16 12:00:57;;;;;;;0.60;0.60;;;31.40;99.90;;;;;;8318769;28;20030;-65
2021/07/16 12:04:58;;;;;;;0.57;0.57;;;34.40;77.70;;;;;;8321635;28;20121;-65
2021/07/16 12:09:00;;;;;;;0.50;0.50;;;33.50;69.00;;;;;;8307617;28;20480;-66
2021/07/16 12:13:01;;;;;;;0.43;0.40;;;32.00;66.60;;;;;;8307276;28;20036;-66
2021/07/16 12:17:02;;;;;;;0.40;0.40;;;31.10;79.70;;;;;;8315678;28;20061;-66
2021/07/16 12:21:04;;;;;;;0.60;0.60;;;30.60;78.50;;;;;;8299619;28;20026;-65
2021/07/16 12:25:06;;;;;;;2.92;0.52;;;30.60;78.90;;;;;;8321531;28;20063;-65
2021/07/16 12:29:11;;;;;;;0.52;0.52;;;30.60;77.60;;;;;;8324636;28;20022;-66
2021/07/16 12:33:13;;;;;;;0.50;0.50;;;29.90;75.50;;;;;;8323065;28;20032;-66
2021/07/16 12:37:16;;;;;;;0.75;0.50;;;29.40;79.30;;;;;;8323529;28;20043;-65
2021/07/16 12:41:21;;;;;;;0.50;0.50;;;29.10;79.70;;;;;;8305738;28;20411;-65
2021/07/16 12:45:22;;;;;;;0.90;0.50;;;28.60;79.90;;;;;;8306012;28;20076;-67
2021/07/16 12:49:24;;;;;;;0.95;0.50;;;27.70;82.40;;;;;;8323519;28;20014;-65
2021/07/16 12:53:38;;;;;;;0.57;0.50;;;28.00;82.10;;;;;;8323163;28;20041;-66
2021/07/16 12:57:38;;;;;;;0.50;0.50;;;30.10;77.50;;;;;;8322579;28;20029;-67
2021/07/16 13:01:39;;;;;;;1.83;0.63;;;29.70;77.50;;;;;;8304695;28;20052;-66
2021/07/16 13:05:39;;;;;;;2.15;0.50;;;32.70;70.00;;;;;;8320440;28;20653;-65
2021/07/16 13:09:40;;;;;;;1.60;0.70;;;34.10;69.80;;;;;;8321100;28;20040;-66
2021/07/16 13:13:40;;;;;;;0.70;0.70;;;28.90;83.10;;;;;;8322739;28;20029;-65
2021/07/16 13:17:41;;;;;;;0.77;0.68;;;26.20;93.20;;;;;;8306240;28;20024;-66
2021/07/16 13:21:41;;;;;;;221.90;203.80;;;25.20;94.20;;;;;;8323626;28;20435;-64
2021/07/16 13:25:42;;;;;;;0.93;0.90;;;24.70;95.30;;;;;;8304667;28;20014;-64
2021/07/16 13:29:43;;;;;;;0.52;0.52;;;24.90;95.80;;;;;;8321780;28;20440;-67
2021/07/16 13:33:44;;;;;;;0.70;0.70;;;26.20;94.30;;;;;;8319432;28;20380;-63
2021/07/16 13:37:44;;;;;;;0.63;0.63;;;28.60;92.80;;;;;;8320673;28;20068;-66
2021/07/16 13:41:45;;;;;;;0.60;0.60;;;34.30;74.20;;;;;;8328692;28;20064;-66
2021/07/16 13:45:46;;;;;;;0.80;0.80;;;37.40;59.30;;;;;;8318645;28;20029;-65
2021/07/16 13:49:46;;;;;;;0.70;0.70;;;34.60;65.80;;;;;;8320169;28;20022;-64
2021/07/16 13:53:47;;;;;;;1.40;1.00;;;31.40;74.30;;;;;;8323636;28;20061;-64
2021/07/16 13:57:47;;;;;;;1.17;1.02;;;28.70;85.20;;;;;;8308942;28;20061;-64
2021/07/16 14:01:48;;;;;;;1.15;0.90;;;26.50;91.90;;;;;;8328090;28;20063;-65
2021/07/16 14:05:49;;;;;;;1.38;1.27;;;25.00;95.90;;;;;;8326370;28;20132;-64
2021/07/16 14:09:54;;;;;;;2.90;1.27;;;24.30;99.60;;;;;;8325893;28;20034;-65
2021/07/16 14:13:55;;;;;;;1.33;1.10;;;23.90;99.90;;;;;;8326935;28;20018;-65
2021/07/16 14:17:55;;;;;;;1.10;1.00;;;23.80;99.90;;;;;;8307361;28;20041;-64
2021/07/16 14:21:56;;;;;;;1.15;1.05;;;23.30;99.90;;;;;;8309286;28;20038;-64
2021/07/16 14:25:57;;;;;;;1.48;1.33;;;22.60;99.90;;;;;;8300902;28;20064;-64
2021/07/16 14:29:58;;;;;;;232.50;215.15;;;23.40;99.90;;;;;;8291056;28;20022;-65
2021/07/16 14:33:58;;;;;;;1.85;1.10;;;29.10;99.90;;;;;;8299116;28;20029;-64
2021/07/16 14:37:59;;;;;;;2.65;1.13;;;32.40;92.80;;;;;;8316454;28;20613;-65
2021/07/16 14:42:00;;;;;;;2.35;1.30;;;32.60;85.50;;;;;;8325268;28;20507;-65
2021/07/16 14:46:01;;;;;;;1.33;1.20;;;33.50;84.10;;;;;;8310862;23;20424;-62
2021/07/16 14:50:03;;;;;;;1.30;1.20;;;35.40;73.50;;;;;;8297720;28;20075;-61
2021/07/16 14:54:05;;;;;;;841.55;772.83;;;37.70;63.80;;;;;;8291006;28;20041;-62
2021/07/16 14:58:06;;;;;;;850.38;781.63;;;37.90;58.30;;;;;;8248320;28;20033;-61
2021/07/16 15:02:07;;;;;;;2.83;1.90;;;36.40;58.80;;;;;;8277442;28;20413;-61
2021/07/16 15:06:08;;;;;;;3.17;1.83;;;34.30;64.10;;;;;;8264541;28;20401;-61
2021/07/16 15:10:09;;;;;;;2.30;1.60;;;31.60;68.90;;;;;;8264414;28;20112;-59
2021/07/16 15:14:10;;;;;;;7.38;4.78;;;30.00;79.10;;;;;;8265618;28;20081;-59
2021/07/16 15:18:10;;;;;;;6.82;3.50;;;29.60;83.40;;;;;;8264030;28;20030;-61
2021/07/16 15:22:11;;;;;;;3.15;2.42;;;29.20;81.40;;;;;;8258228;28;20037;-62
2021/07/16 15:26:11;;;;;;;1.83;1.65;;;31.80;78.00;;;;;;8281797;28;20045;-61
2021/07/16 15:30:14;;;;;;;4.85;4.45;;;32.80;73.20;;;;;;8284905;28;20030;-62
2021/07/16 15:34:17;;;;;;;2.00;1.90;;;33.10;70.50;;;;;;8273887;28;20069;-62
2021/07/16 15:38:17;;;;;;;2.28;1.75;;;35.60;63.40;;;;;;8261757;28;20037;-63
2021/07/16 15:42:18;;;;;;;1.98;1.75;;;38.70;57.50;;;;;;8270820;28;20449;-63
2021/07/16 15:46:18;;;;;;;1.90;1.80;;;40.60;48.80;;;;;;8240490;28;20034;-62
2021/07/16 15:50:21;;;;;;;1.75;1.65;;;40.50;45.90;;;;;;8270646;28;20101;-62
2021/07/16 15:54:21;;;;;;;1.77;1.67;;;39.50;47.80;;;;;;8273426;28;20037;-62
2021/07/16 15:58:23;;;;;;;1.63;1.52;;;37.80;48.20;;;;;;8289296;28;20516;-62
2021/07/16 16:02:27;;;;;;;1.48;1.38;;;38.90;49.60;;;;;;8268844;28;20662;-63
2021/07/16 16:06:28;;;;;;;2.15;1.80;;;41.40;46.50;;;;;;8259658;28;20018;-63
2021/07/16 16:10:29;;;;;;;960.20;887.88;;;42.20;42.70;;;;;;8259751;28;20106;-61
2021/07/16 16:14:29;;;;;;;1.73;1.63;;;44.10;41.50;;;;;;8290256;28;20041;-61
2021/07/16 16:18:30;;;;;;;1.92;1.60;;;44.90;38.40;;;;;;8276426;28;20030;-60
2021/07/16 16:22:31;;;;;;;2.10;1.70;;;42.00;38.90;;;;;;8268000;28;20030;-61
2021/07/16 16:26:32;;;;;;;7.22;2.75;;;41.50;42.30;;;;;;8258697;28;20033;-61
2021/07/16 16:30:33;;;;;;;5.82;2.20;;;40.80;41.70;;;;;;8258165;28;20093;-62
2021/07/16 16:34:34;;;;;;;2.10;1.90;;;39.20;43.80;;;;;;8259676;28;20093;-62
2021/07/16 16:38:36;;;;;;;1.92;1.83;;;38.60;45.30;;;;;;8260186;28;20030;-61
2021/07/16 16:42:37;;;;;;;5.63;2.65;;;38.60;44.00;;;;;;8262594;28;20084;-62
2021/07/16 16:46:38;;;;;;;1.98;1.80;;;39.90;42.40;;;;;;8260430;28;20101;-62
2021/07/16 16:50:40;;;;;;;2.65;1.98;;;40.30;41.30;;;;;;8260149;28;20370;-62
2021/07/16 16:54:40;;;;;;;2.08;1.95;;;38.70;44.40;;;;;;8278300;28;20092;-63
2021/07/16 16:58:41;;;;;;;2.10;1.88;;;39.00;44.50;;;;;;8292553;28;20030;-62
2021/07/16 17:02:42;;;;;;;2.25;2.05;;;39.10;43.40;;;;;;8279108;28;20440;-62
2021/07/16 17:06:43;;;;;;;3.70;2.10;;;35.90;48.90;;;;;;8272133;28;20025;-62
2021/07/16 17:10:43;;;;;;;2.13;1.73;;;35.00;50.30;;;;;;8283552;28;20026;-62
2021/07/16 17:14:44;;;;;;;2.20;2.00;;;34.40;52.20;;;;;;8279345;28;20405;-62
2021/07/16 17:18:46;;;;;;;2.30;2.10;;;31.40;57.00;;;;;;8280104;28;20109;-62
2021/07/16 17:22:47;;;;;;;2.97;2.22;;;30.10;61.20;;;;;;8279863;28;20030;-61
2021/07/16 17:26:51;;;;;;;2.47;2.28;;;28.70;65.80;;;;;;8265653;28;20233;-61
2021/07/16 17:30:52;;;;;;;3.17;2.40;;;26.90;72.70;;;;;;8247967;28;20055;-60
2021/07/16 17:34:52;;;;;;;2.58;2.20;;;25.40;82.20;;;;;;8265121;28;20471;-61
2021/07/16 17:38:53;;;;;;;3.25;2.50;;;24.50;86.30;;;;;;8265289;28;20127;-61
2021/07/16 17:42:54;;;;;;;2.08;1.98;;;24.00;92.10;;;;;;8280526;28;20041;-61
2021/07/16 17:46:55;;;;;;;2.25;2.05;;;23.20;96.30;;;;;;8275364;28;20022;-63
2021/07/16 17:50:56;;;;;;;4.22;2.08;;;22.80;99.90;;;;;;8268636;28;20034;-63
2021/07/16 17:54:57;;;;;;;1.85;1.75;;;22.70;99.90;;;;;;8267229;28;20113;-62
2021/07/16 17:58:58;;;;;;;2.42;1.67;;;22.70;99.90;;;;;;8263464;28;20165;-63
2021/07/16 18:02:59;;;;;;;3.75;1.58;;;22.60;99.90;;;;;;8264562;28;20026;-63
2021/07/16 18:06:59;;;;;;;4.63;1.60;;;22.30;99.90;;;;;;8269287;28;20014;-62
2021/07/16 18:11:00;;;;;;;3.53;1.58;;;22.30;99.90;;;;;;8295558;28;20033;-63
2021/07/16 18:15:01;;;;;;;121.45;105.25;;;22.40;99.90;;;;;;8295890;28;20022;-62
2021/07/16 18:19:01;;;;;;;1.70;1.60;;;22.00;99.90;;;;;;8296165;28;20112;-62
2021/07/16 18:23:03;;;;;;;1.70;1.60;;;21.50;99.90;;;;;;8296509;28;20044;-62
2021/07/16 18:27:04;;;;;;;4.88;1.73;;;21.30;99.90;;;;;;8284152;28;20015;-63
2021/07/16 18:31:04;;;;;;;1.95;1.70;;;21.10;99.90;;;;;;8279001;28;20037;-62
2021/07/16 18:35:06;;;;;;;1.50;1.40;;;21.00;99.90;;;;;;8275459;28;20539;-63
2021/07/16 18:39:06;;;;;;;1.63;1.52;;;20.90;99.90;;;;;;8263758;28;20037;-62
2021/07/16 18:43:07;;;;;;;3.00;1.80;;;20.70;99.90;;;;;;8263699;28;20030;-63
2021/07/16 18:47:08;;;;;;;3.38;2.15;;;20.70;99.90;;;;;;8268803;28;20026;-63
2021/07/16 18:51:08;;;;;;;3.75;2.83;;;20.30;99.90;;;;;;8269745;28;20391;-63
2021/07/16 18:55:10;;;;;;;2.08;1.55;;;20.10;99.90;;;;;;8295634;28;20030;-62
2021/07/16 18:59:10;;;;;;;2.65;1.75;;;20.00;99.90;;;;;;8295374;28;20120;-63
2021/07/16 19:03:11;;;;;;;3.05;2.10;;;19.80;99.90;;;;;;8287889;28;20513;-63
2021/07/16 19:07:12;;;;;;;2.50;2.10;;;19.80;99.90;;;;;;8263705;28;20061;-63
2021/07/16 19:11:13;;;;;;;2.13;1.92;;;19.80;99.90;;;;;;8278530;28;20065;-62
2021/07/16 19:15:14;;;;;;;4.15;2.10;;;19.50;99.90;;;;;;8265211;28;20060;-63
2021/07/16 19:19:15;;;;;;;2.63;2.17;;;19.30;99.90;;;;;;8252631;28;20393;-63
2021/07/16 19:23:15;;;;;;;4.38;2.30;;;19.10;99.90;;;;;;8242503;28;20037;-63
2021/07/16 19:27:16;;;;;;;3.63;2.35;;;18.80;99.90;;;;;;8255190;28;20030;-63
2021/07/16 19:31:16;;;;;;;3.00;2.20;;;18.70;99.90;;;;;;8260849;28;20196;-63
2021/07/16 19:35:18;;;;;;;3.58;2.28;;;18.90;99.90;;;;;;8261624;28;20081;-63
2021/07/16 19:39:19;;;;;;;5.15;2.20;;;18.80;99.90;;;;;;8260756;28;20442;-63
2021/07/16 19:43:19;;;;;;;5.28;2.40;;;18.60;99.90;;;;;;8261002;28;20204;-63
2021/07/16 19:47:21;;;;;;;2.35;2.13;;;18.30;99.90;;;;;;8260782;28;20473;-63
2021/07/16 19:51:21;;;;;;;2.70;2.28;;;18.20;99.90;;;;;;8261385;28;20377;-63
2021/07/16 19:55:22;;;;;;;2.28;2.08;;;18.10;99.90;;;;;;8257625;28;20038;-63
2021/07/16 19:59:23;;;;;;;3.33;2.08;;;18.20;99.90;;;;;;8260957;28;20026;-63
2021/07/16 20:03:24;;;;;;;6.68;2.00;;;18.00;99.90;;;;;;8258900;28;20026;-63
2021/07/16 20:07:29;;;;;;;3.88;2.20;;;17.70;99.90;;;;;;8260643;28;20098;-63
2021/07/16 20:11:29;;;;;;;3.50;2.40;;;17.60;99.90;;;;;;8268249;28;20019;-63
2021/07/16 20:15:30;;;;;;;2.85;2.63;;;17.60;99.90;;;;;;8275372;28;20032;-63
2021/07/16 20:19:30;;;;;;;544.40;371.08;;;17.40;99.90;;;;;;8276513;28;20027;-63
2021/07/16 20:23:33;;;;;;;3.05;2.40;;;17.30;99.90;;;;;;8278245;28;20485;-63
2021/07/16 20:27:38;;;;;;;2.97;2.30;;;17.40;99.90;;;;;;8292522;28;20508;-63
2021/07/16 20:31:39;;;;;;;3.65;2.88;;;17.40;99.90;;;;;;8292959;28;20021;-63
2021/07/16 20:35:39;;;;;;;3.17;2.42;;;17.40;99.90;;;;;;8266175;28;20028;-63
2021/07/16 20:39:41;;;;;;;6.07;2.70;;;17.20;99.90;;;;;;8268642;28;20021;-63
2021/07/16 20:43:44;;;;;;;5.13;2.88;;;17.30;99.90;;;;;;8292480;28;20026;-63
2021/07/16 20:47:44;;;;;;;541.90;356.77;;;17.10;99.90;;;;;;8292442;28;20492;-63
2021/07/16 20:51:45;;;;;;;539.85;351.92;;;16.90;99.90;;;;;;8274592;28;20030;-63
2021/07/16 20:55:46;;;;;;;525.97;345.58;;;16.80;99.90;;;;;;8292405;28;20022;-63
2021/07/16 20:59:46;;;;;;;520.90;337.92;;;16.90;99.90;;;;;;8292349;28;20087;-63
2021/07/16 21:03:47;;;;;;;509.25;332.05;;;16.70;99.90;;;;;;8281725;28;20049;-63
2021/07/16 21:07:48;;;;;;;511.05;325.77;;;16.70;99.90;;;;;;8259740;28;20405;-63
2021/07/16 21:11:48;;;;;;;516.47;325.65;;;16.70;99.90;;;;;;8259735;28;20026;-63
2021/07/16 21:15:49;;;;;;;521.20;328.90;;;16.50;99.90;;;;;;8259161;28;20058;-63
2021/07/16 21:19:49;;;;;;;518.28;326.92;;;16.70;99.90;;;;;;8259379;28;20137;-63
2021/07/16 21:23:51;;;;;;;529.72;333.35;;;16.60;99.90;;;;;;8274178;28;20439;-63
2021/07/16 21:27:52;;;;;;;518.83;324.33;;;16.50;99.90;;;;;;8291930;28;20049;-63
2021/07/16 21:31:52;;;;;;;546.38;348.50;;;16.50;99.90;;;;;;8291559;28;20026;-63
2021/07/16 21:35:53;;;;;;;519.03;322.35;;;16.90;99.90;;;;;;8264008;28;20381;-63
2021/07/16 21:39:53;;;;;;;516.45;321.98;;;16.70;99.90;;;;;;8259011;28;20026;-63
2021/07/16 21:43:54;;;;;;;525.03;327.38;;;16.40;99.90;;;;;;8259229;28;20030;-63